Time;durP1;ratioP1;P1;durP2;ratioP2;P2;SDS_P1;SDS_P2;PMS_P1;PMS_P2;Temp;Humidity;BMP_temperature;BMP_pressure;BME280_temperature;BME280_humidity;BME280_pressure;Samples;Min_cycle;Max_cycle;Signal;HPM_P1;HPM_P2
2024/01/21 00:00:01;;;;;;;24.87;14.90;;;;;;;;;;5112379;28;20610;-78
2024/01/21 00:02:28;;;;;;;21.07;13.53;;;;;;;;;;5112537;28;20771;-78
2024/01/21 00:04:55;;;;;;;24.37;14.13;;;;;;;;;;5112668;28;20299;-77
2024/01/21 00:07:22;;;;;;;24.40;13.73;;;;;;;;;;5112345;27;20201;-77
2024/01/21 00:09:49;;;;;;;22.80;13.87;;;;;;;;;;5112496;28;20318;-78
2024/01/21 00:12:16;;;;;;;22.47;13.83;;;;;;;;;;5111829;28;20687;-78
2024/01/21 00:14:43;;;;;;;22.33;13.13;;;;;;;;;;5112276;28;20291;-77
2024/01/21 00:17:12;;;;;;;24.17;13.63;;;;;;;;;;5112010;28;20810;-77
2024/01/21 00:19:40;;;;;;;23.97;13.60;;;;;;;;;;5112084;28;20649;-77
2024/01/21 00:22:07;;;;;;;24.77;13.57;;;;;;;;;;5112613;28;20194;-78
2024/01/21 00:24:34;;;;;;;24.93;13.90;;;;;;;;;;5112405;28;20287;-78
2024/01/21 00:27:01;;;;;;;23.43;13.43;;;;;;;;;;5112066;28;20224;-77
2024/01/21 00:29:29;;;;;;;20.03;12.97;;;;;;;;;;5112039;28;20280;-77
2024/01/21 00:31:56;;;;;;;20.07;12.87;;;;;;;;;;5111974;28;20294;-78
2024/01/21 00:34:24;;;;;;;20.83;13.37;;;;;;;;;;5112271;28;20195;-77
2024/01/21 00:36:52;;;;;;;24.40;13.70;;;;;;;;;;5111930;28;20203;-77
2024/01/21 00:39:19;;;;;;;22.93;14.13;;;;;;;;;;5111800;28;20234;-78
2024/01/21 00:41:46;;;;;;;21.20;13.03;;;;;;;;;;5111436;28;20194;-77
2024/01/21 00:44:13;;;;;;;20.60;12.43;;;;;;;;;;5111866;28;20291;-78
2024/01/21 00:46:40;;;;;;;22.20;12.90;;;;;;;;;;5111785;28;20196;-78
2024/01/21 00:49:07;;;;;;;23.93;13.13;;;;;;;;;;5112095;28;20239;-78
2024/01/21 00:51:36;;;;;;;21.47;13.20;;;;;;;;;;5111532;28;20325;-77
2024/01/21 00:54:03;;;;;;;22.30;13.03;;;;;;;;;;5111494;28;20253;-78
2024/01/21 00:56:30;;;;;;;21.37;13.13;;;;;;;;;;5112349;28;20286;-78
2024/01/21 00:58:58;;;;;;;22.53;13.90;;;;;;;;;;5110809;28;20287;-78
2024/01/21 01:01:25;;;;;;;22.93;13.20;;;;;;;;;;5111752;28;20212;-78
2024/01/21 01:03:52;;;;;;;23.53;13.00;;;;;;;;;;5111140;28;20288;-77
2024/01/21 01:06:19;;;;;;;22.27;13.10;;;;;;;;;;5111392;28;20235;-77
2024/01/21 01:08:48;;;;;;;21.63;13.97;;;;;;;;;;5111537;28;20291;-77
2024/01/21 01:11:15;;;;;;;21.57;13.80;;;;;;;;;;5111378;28;20319;-78
2024/01/21 01:13:42;;;;;;;21.73;13.80;;;;;;;;;;5111542;28;20283;-77
2024/01/21 01:16:10;;;;;;;22.00;13.77;;;;;;;;;;5111622;28;20288;-77
2024/01/21 01:18:37;;;;;;;21.83;13.57;;;;;;;;;;5111449;28;20197;-78
2024/01/21 01:21:04;;;;;;;22.30;14.37;;;;;;;;;;5111293;28;20295;-78
2024/01/21 01:23:31;;;;;;;20.60;13.13;;;;;;;;;;5111017;28;20704;-78
2024/01/21 01:26:00;;;;;;;22.83;13.57;;;;;;;;;;5111124;28;20633;-78
2024/01/21 01:28:28;;;;;;;20.80;13.60;;;;;;;;;;5110827;28;20265;-78
2024/01/21 01:30:55;;;;;;;24.07;14.27;;;;;;;;;;5094956;28;20601;-77
2024/01/21 01:33:22;;;;;;;23.17;13.33;;;;;;;;;;5091436;28;20201;-78
2024/01/21 01:35:49;;;;;;;21.90;13.60;;;;;;;;;;5099237;28;20291;-77
2024/01/21 01:38:16;;;;;;;23.37;13.80;;;;;;;;;;5111141;28;20284;-77
2024/01/21 01:40:44;;;;;;;22.50;13.93;;;;;;;;;;5111075;28;20733;-78
2024/01/21 01:43:12;;;;;;;20.87;14.20;;;;;;;;;;5110792;28;20780;-78
2024/01/21 01:45:39;;;;;;;22.47;14.03;;;;;;;;;;5111337;28;20608;-77
2024/01/21 01:48:07;;;;;;;21.73;13.50;;;;;;;;;;5111600;28;20731;-77
2024/01/21 01:50:34;;;;;;;24.47;14.90;;;;;;;;;;5111071;28;20324;-78
2024/01/21 01:53:01;;;;;;;21.57;14.10;;;;;;;;;;5111083;28;20293;-77
2024/01/21 01:55:29;;;;;;;22.27;13.17;;;;;;;;;;5111056;28;20287;-76
2024/01/21 01:57:56;;;;;;;22.30;14.33;;;;;;;;;;5111204;28;20233;-77
2024/01/21 02:00:25;;;;;;;21.03;12.97;;;;;;;;;;5110753;28;20243;-77
2024/01/21 02:02:52;;;;;;;24.73;13.17;;;;;;;;;;5091022;28;20229;-77
2024/01/21 02:05:20;;;;;;;20.67;13.37;;;;;;;;;;5090888;28;20228;-78
2024/01/21 02:07:47;;;;;;;21.97;13.30;;;;;;;;;;5089979;28;20288;-78
2024/01/21 02:10:14;;;;;;;21.33;13.20;;;;;;;;;;5091908;28;20315;-77
2024/01/21 02:12:44;;;;;;;22.60;13.23;;;;;;;;;;5094257;28;20253;-78
2024/01/21 02:15:12;;;;;;;20.47;13.37;;;;;;;;;;5094369;28;20657;-77
2024/01/21 02:17:42;;;;;;;21.10;13.67;;;;;;;;;;5094285;28;20209;-77
2024/01/21 02:20:09;;;;;;;21.23;13.07;;;;;;;;;;5094521;28;20269;-77
2024/01/21 02:22:39;;;;;;;20.70;11.53;;;;;;;;;;5093696;28;20200;-77
2024/01/21 02:25:07;;;;;;;19.20;12.13;;;;;;;;;;5094102;28;20688;-77
2024/01/21 02:27:35;;;;;;;23.07;13.43;;;;;;;;;;5094151;28;20197;-77
2024/01/21 02:30:02;;;;;;;20.97;12.50;;;;;;;;;;5094381;28;20580;-78
2024/01/21 02:32:29;;;;;;;20.63;13.90;;;;;;;;;;5095738;28;20216;-76
2024/01/21 02:34:57;;;;;;;20.77;13.10;;;;;;;;;;5103024;28;20206;-75
2024/01/21 02:37:24;;;;;;;20.47;13.93;;;;;;;;;;5108330;28;20287;-77
2024/01/21 02:39:51;;;;;;;20.30;12.40;;;;;;;;;;5103451;28;20296;-77
2024/01/21 02:42:20;;;;;;;21.17;13.70;;;;;;;;;;5093796;28;20621;-78
2024/01/21 02:44:50;;;;;;;21.60;13.50;;;;;;;;;;5093508;28;20206;-77
2024/01/21 02:47:17;;;;;;;21.63;12.23;;;;;;;;;;5100047;28;20220;-77
2024/01/21 02:49:44;;;;;;;19.27;12.23;;;;;;;;;;5113674;28;20673;-78
2024/01/21 02:52:11;;;;;;;18.57;11.17;;;;;;;;;;5113655;28;20225;-78
2024/01/21 02:54:38;;;;;;;19.53;12.70;;;;;;;;;;5113772;28;20296;-77
2024/01/21 02:57:06;;;;;;;18.77;12.70;;;;;;;;;;5114135;28;20551;-77
2024/01/21 02:59:34;;;;;;;19.57;12.87;;;;;;;;;;5113784;28;20221;-77
2024/01/21 03:02:01;;;;;;;21.87;13.17;;;;;;;;;;5113762;28;20299;-77
2024/01/21 03:04:28;;;;;;;22.93;13.80;;;;;;;;;;5113405;27;20286;-77
2024/01/21 03:06:56;;;;;;;23.00;14.03;;;;;;;;;;5114348;28;20203;-77
2024/01/21 03:09:23;;;;;;;23.90;13.93;;;;;;;;;;5113470;28;20294;-77
2024/01/21 03:11:50;;;;;;;22.10;13.50;;;;;;;;;;5112913;28;20224;-76
2024/01/21 03:14:17;;;;;;;22.87;13.90;;;;;;;;;;5113342;28;20236;-76
2024/01/21 03:16:46;;;;;;;24.20;13.53;;;;;;;;;;5105848;28;20285;-76
2024/01/21 03:19:13;;;;;;;21.47;13.93;;;;;;;;;;5099316;28;20205;-77
2024/01/21 03:21:40;;;;;;;22.40;13.37;;;;;;;;;;5091647;28;20230;-77
2024/01/21 03:24:07;;;;;;;22.10;14.27;;;;;;;;;;5092870;28;20200;-77
2024/01/21 03:26:34;;;;;;;22.83;14.53;;;;;;;;;;5093123;28;20293;-77
2024/01/21 03:29:01;;;;;;;21.23;13.40;;;;;;;;;;5092199;28;20229;-77
2024/01/21 03:31:29;;;;;;;22.73;14.27;;;;;;;;;;5093024;28;20228;-77
2024/01/21 03:33:57;;;;;;;25.67;14.63;;;;;;;;;;5092859;28;20214;-77
2024/01/21 03:36:24;;;;;;;23.83;14.20;;;;;;;;;;5098691;28;20194;-77
2024/01/21 03:38:51;;;;;;;22.07;13.70;;;;;;;;;;5113312;28;20228;-76
2024/01/21 03:41:19;;;;;;;21.80;13.60;;;;;;;;;;5112644;28;20757;-77
2024/01/21 03:43:46;;;;;;;20.33;12.47;;;;;;;;;;5113026;28;20288;-77
2024/01/21 03:46:13;;;;;;;19.60;12.93;;;;;;;;;;5112891;28;20192;-77
2024/01/21 03:48:40;;;;;;;21.53;13.73;;;;;;;;;;5112310;28;20203;-77
2024/01/21 03:51:10;;;;;;;20.07;12.83;;;;;;;;;;5112640;28;20258;-77
2024/01/21 03:53:39;;;;;;;20.33;13.10;;;;;;;;;;5112987;28;20196;-77
2024/01/21 03:56:07;;;;;;;21.53;13.50;;;;;;;;;;5112869;28;20288;-77
2024/01/21 03:58:34;;;;;;;20.20;12.50;;;;;;;;;;5112828;28;20280;-77
2024/01/21 04:01:01;;;;;;;19.23;13.20;;;;;;;;;;5112504;28;20243;-76
2024/01/21 04:03:28;;;;;;;21.83;12.40;;;;;;;;;;5112559;28;20218;-77
2024/01/21 04:05:55;;;;;;;20.90;13.17;;;;;;;;;;5112344;28;20567;-77
2024/01/21 04:08:24;;;;;;;22.13;13.67;;;;;;;;;;5112443;28;20289;-77
2024/01/21 04:10:52;;;;;;;20.37;13.13;;;;;;;;;;5112142;28;20659;-77
2024/01/21 04:13:19;;;;;;;22.17;13.03;;;;;;;;;;5112457;28;20237;-77
2024/01/21 04:15:46;;;;;;;22.70;13.57;;;;;;;;;;5112364;27;20406;-76
2024/01/21 04:18:13;;;;;;;21.27;13.77;;;;;;;;;;5111964;28;20197;-77
2024/01/21 04:20:40;;;;;;;18.93;13.30;;;;;;;;;;5112346;28;20201;-76
2024/01/21 04:23:08;;;;;;;20.70;13.17;;;;;;;;;;5111913;28;20288;-78
2024/01/21 04:25:36;;;;;;;20.30;13.40;;;;;;;;;;5112098;28;20217;-77
2024/01/21 04:28:04;;;;;;;22.80;13.57;;;;;;;;;;5112522;28;20280;-76
2024/01/21 04:30:31;;;;;;;22.60;13.93;;;;;;;;;;5112036;28;20636;-77
2024/01/21 04:32:58;;;;;;;18.33;12.53;;;;;;;;;;5111194;28;20744;-77
2024/01/21 04:35:25;;;;;;;21.07;14.03;;;;;;;;;;5111946;28;20285;-77
2024/01/21 04:37:52;;;;;;;22.37;13.53;;;;;;;;;;5112484;28;20288;-77
2024/01/21 04:40:19;;;;;;;20.80;13.70;;;;;;;;;;5111875;28;20616;-77
2024/01/21 04:42:48;;;;;;;19.17;12.97;;;;;;;;;;5112065;28;20288;-77
2024/01/21 04:45:16;;;;;;;22.03;13.63;;;;;;;;;;5111797;28;20214;-77
2024/01/21 04:47:43;;;;;;;20.90;13.30;;;;;;;;;;5111318;28;20201;-77
2024/01/21 04:50:11;;;;;;;20.80;12.47;;;;;;;;;;5112501;28;20292;-77
2024/01/21 04:52:37;;;;;;;19.10;12.67;;;;;;;;;;5111661;28;20284;-76
2024/01/21 04:55:04;;;;;;;21.87;13.23;;;;;;;;;;5111759;28;20204;-77
2024/01/21 04:57:32;;;;;;;20.63;12.30;;;;;;;;;;5111694;28;20194;-77
2024/01/21 05:00:00;;;;;;;22.57;12.40;;;;;;;;;;5111613;28;20283;-77
2024/01/21 05:02:27;;;;;;;22.50;12.90;;;;;;;;;;5111319;28;20279;-77
2024/01/21 05:04:54;;;;;;;19.10;13.37;;;;;;;;;;5112032;28;20288;-76
2024/01/21 05:07:22;;;;;;;19.53;12.97;;;;;;;;;;5112172;28;20279;-76
2024/01/21 05:09:49;;;;;;;19.50;13.23;;;;;;;;;;5111479;28;20255;-77
2024/01/21 05:12:16;;;;;;;22.77;13.40;;;;;;;;;;5111671;28;20324;-78
2024/01/21 05:14:43;;;;;;;22.23;12.43;;;;;;;;;;5111705;28;20277;-77
2024/01/21 05:17:12;;;;;;;20.07;12.33;;;;;;;;;;5111436;28;20280;-77
2024/01/21 05:19:39;;;;;;;21.53;12.60;;;;;;;;;;5111621;28;20284;-77
2024/01/21 05:22:06;;;;;;;20.90;12.30;;;;;;;;;;5111557;28;20372;-78
2024/01/21 05:24:36;;;;;;;18.07;12.40;;;;;;;;;;5111297;28;20293;-76
2024/01/21 05:27:03;;;;;;;20.43;12.37;;;;;;;;;;5111549;28;20204;-77
2024/01/21 05:29:31;;;;;;;19.77;12.60;;;;;;;;;;5110936;28;20225;-77
2024/01/21 05:31:58;;;;;;;16.83;11.83;;;;;;;;;;5111232;28;20705;-78
2024/01/21 05:34:26;;;;;;;20.33;11.47;;;;;;;;;;5111913;28;20743;-76
2024/01/21 05:36:53;;;;;;;20.13;11.83;;;;;;;;;;5111296;28;20221;-77
2024/01/21 05:39:21;;;;;;;15.87;11.00;;;;;;;;;;5111525;28;20280;-77
2024/01/21 05:42:01;;;;;;;17.83;11.03;;;;;;;;;;5111222;28;20253;-76
2024/01/21 05:44:28;;;;;;;18.07;11.20;;;;;;;;;;5111228;28;20294;-77
2024/01/21 05:46:55;;;;;;;20.70;11.47;;;;;;;;;;5115181;28;20745;-76
2024/01/21 05:49:22;;;;;;;20.70;11.70;;;;;;;;;;5115456;28;20196;-77
2024/01/21 05:51:51;;;;;;;20.33;10.90;;;;;;;;;;5115224;28;20237;-77
2024/01/21 05:54:18;;;;;;;15.23;10.30;;;;;;;;;;5115348;28;20197;-76
2024/01/21 05:56:45;;;;;;;17.07;11.27;;;;;;;;;;5114979;28;20205;-76
2024/01/21 05:59:16;;;;;;;19.30;11.50;;;;;;;;;;5114568;28;20235;-77
2024/01/21 06:01:43;;;;;;;22.27;11.30;;;;;;;;;;5114625;28;20204;-77
2024/01/21 06:04:11;;;;;;;20.60;11.37;;;;;;;;;;5115314;28;20205;-76
2024/01/21 06:06:38;;;;;;;19.97;10.97;;;;;;;;;;5115144;28;21042;-77
2024/01/21 06:09:07;;;;;;;17.57;11.53;;;;;;;;;;5114423;28;20677;-76
2024/01/21 06:11:34;;;;;;;19.53;11.47;;;;;;;;;;5115095;28;20666;-77
2024/01/21 06:14:01;;;;;;;17.93;11.27;;;;;;;;;;5114006;28;20684;-76
2024/01/21 06:16:28;;;;;;;16.80;11.40;;;;;;;;;;5114741;28;20615;-77
2024/01/21 06:18:55;;;;;;;21.23;11.77;;;;;;;;;;5114902;28;20199;-77
2024/01/21 06:21:23;;;;;;;16.30;11.43;;;;;;;;;;5115098;27;20291;-77
2024/01/21 06:23:50;;;;;;;19.47;11.33;;;;;;;;;;5114483;28;20198;-77
2024/01/21 06:26:19;;;;;;;17.50;11.50;;;;;;;;;;5114642;28;20194;-76
2024/01/21 06:28:47;;;;;;;17.20;11.10;;;;;;;;;;5114350;28;20254;-77
2024/01/21 06:31:14;;;;;;;19.90;11.23;;;;;;;;;;5114243;28;20292;-77
2024/01/21 06:33:42;;;;;;;19.40;11.07;;;;;;;;;;5114331;28;20220;-76
2024/01/21 06:36:09;;;;;;;20.07;10.80;;;;;;;;;;5114329;28;20284;-77
2024/01/21 06:38:36;;;;;;;19.70;11.67;;;;;;;;;;5114101;28;20207;-76
2024/01/21 06:41:03;;;;;;;17.37;11.03;;;;;;;;;;5114318;28;20669;-77
2024/01/21 06:43:32;;;;;;;17.17;11.10;;;;;;;;;;5113771;28;20250;-77
2024/01/21 06:45:59;;;;;;;17.47;10.90;;;;;;;;;;5113973;28;20824;-76
2024/01/21 06:48:26;;;;;;;18.73;11.17;;;;;;;;;;5114003;28;20284;-77
2024/01/21 06:50:53;;;;;;;20.20;11.57;;;;;;;;;;5114530;28;20236;-77
2024/01/21 06:53:21;;;;;;;19.33;11.07;;;;;;;;;;5114080;28;20316;-77
2024/01/21 06:55:48;;;;;;;25.83;11.90;;;;;;;;;;5113798;28;20194;-77
2024/01/21 06:58:15;;;;;;;17.87;11.00;;;;;;;;;;5113796;28;20281;-77
2024/01/21 07:00:45;;;;;;;18.40;11.47;;;;;;;;;;5113594;28;20571;-77
2024/01/21 07:03:12;;;;;;;16.90;11.40;;;;;;;;;;5113990;28;20193;-77
2024/01/21 07:05:39;;;;;;;20.93;12.33;;;;;;;;;;5113415;28;20217;-77
2024/01/21 07:08:07;;;;;;;21.10;12.67;;;;;;;;;;5113980;28;20293;-76
2024/01/21 07:10:34;;;;;;;18.90;12.63;;;;;;;;;;5113441;28;20288;-77
2024/01/21 07:13:02;;;;;;;18.23;11.90;;;;;;;;;;5112966;28;20269;-76
2024/01/21 07:15:29;;;;;;;20.67;12.77;;;;;;;;;;5113772;27;20570;-76
2024/01/21 07:17:58;;;;;;;20.30;13.53;;;;;;;;;;5113624;28;20236;-77
2024/01/21 07:20:25;;;;;;;21.33;13.47;;;;;;;;;;5113475;28;20200;-77
2024/01/21 07:22:52;;;;;;;18.23;12.67;;;;;;;;;;5113659;28;20267;-77
2024/01/21 07:25:19;;;;;;;21.10;13.27;;;;;;;;;;5112994;28;20236;-76
2024/01/21 07:27:46;;;;;;;20.63;12.83;;;;;;;;;;5113238;28;20764;-77
2024/01/21 07:30:14;;;;;;;22.80;13.73;;;;;;;;;;5113402;28;20202;-77
2024/01/21 07:32:41;;;;;;;22.30;14.07;;;;;;;;;;5113377;28;20320;-78
2024/01/21 07:35:10;;;;;;;23.17;13.40;;;;;;;;;;5113102;28;20228;-77
2024/01/21 07:37:37;;;;;;;21.63;13.50;;;;;;;;;;5113173;28;20202;-78
2024/01/21 07:40:05;;;;;;;22.70;13.60;;;;;;;;;;5113168;28;20588;-77
2024/01/21 07:42:32;;;;;;;21.97;13.53;;;;;;;;;;5112801;28;20724;-76
2024/01/21 07:45:00;;;;;;;20.70;13.57;;;;;;;;;;5113118;28;20709;-77
2024/01/21 07:47:27;;;;;;;24.23;13.60;;;;;;;;;;5113146;28;20713;-77
2024/01/21 07:49:55;;;;;;;22.60;14.13;;;;;;;;;;5112868;28;20200;-77
2024/01/21 07:52:23;;;;;;;25.20;14.00;;;;;;;;;;5113010;28;20221;-77
2024/01/21 07:54:51;;;;;;;23.23;13.43;;;;;;;;;;5112370;28;20295;-76
2024/01/21 07:57:18;;;;;;;28.03;13.20;;;;;;;;;;5112450;28;20603;-77
2024/01/21 07:59:45;;;;;;;24.93;13.93;;;;;;;;;;5113138;28;20194;-77
2024/01/21 08:02:12;;;;;;;25.13;14.60;;;;;;;;;;5112560;28;20198;-76
2024/01/21 08:04:40;;;;;;;26.97;14.67;;;;;;;;;;5112496;28;20281;-77
2024/01/21 08:07:07;;;;;;;24.37;14.63;;;;;;;;;;5112443;28;20753;-76
2024/01/21 08:09:35;;;;;;;24.50;14.23;;;;;;;;;;5112290;28;20658;-77
2024/01/21 08:12:03;;;;;;;23.37;14.63;;;;;;;;;;5112097;28;20256;-76
2024/01/21 08:14:32;;;;;;;27.50;15.47;;;;;;;;;;5112436;28;20193;-77
2024/01/21 08:16:59;;;;;;;24.97;15.13;;;;;;;;;;5112391;28;20580;-76
2024/01/21 08:19:26;;;;;;;25.00;15.17;;;;;;;;;;5112128;28;20289;-77
2024/01/21 08:21:53;;;;;;;28.93;14.90;;;;;;;;;;5112655;28;20768;-77
2024/01/21 08:24:20;;;;;;;30.23;15.97;;;;;;;;;;5112316;28;20293;-76
2024/01/21 08:26:49;;;;;;;26.93;14.80;;;;;;;;;;5112185;28;20194;-77
2024/01/21 08:29:16;;;;;;;34.33;15.67;;;;;;;;;;5112117;28;20197;-82
2024/01/21 08:31:44;;;;;;;31.90;16.17;;;;;;;;;;5111838;28;20293;-79
2024/01/21 08:34:11;;;;;;;34.27;17.20;;;;;;;;;;5112286;28;20194;-79
2024/01/21 08:36:38;;;;;;;31.90;16.87;;;;;;;;;;5111950;28;20229;-79
2024/01/21 08:39:06;;;;;;;37.50;16.43;;;;;;;;;;5111304;28;20193;-77
2024/01/21 08:41:34;;;;;;;33.97;16.00;;;;;;;;;;5112235;28;20201;-79
2024/01/21 08:44:02;;;;;;;31.90;17.07;;;;;;;;;;5111989;28;20272;-79
2024/01/21 08:46:29;;;;;;;33.97;16.43;;;;;;;;;;5110405;28;20253;-79
2024/01/21 08:48:56;;;;;;;31.70;17.47;;;;;;;;;;5101847;28;20573;-80
2024/01/21 08:51:24;;;;;;;34.03;16.90;;;;;;;;;;5096787;28;20202;-78
2024/01/21 08:53:56;;;;;;;31.57;17.33;;;;;;;;;;5091643;28;20232;-77
2024/01/21 08:56:24;;;;;;;35.70;16.87;;;;;;;;;;5091391;28;20202;-77
2024/01/21 08:58:51;;;;;;;37.97;17.97;;;;;;;;;;5091425;28;20200;-77
2024/01/21 09:01:20;;;;;;;44.57;19.23;;;;;;;;;;5091297;28;20238;-77
2024/01/21 09:03:47;;;;;;;43.50;17.17;;;;;;;;;;5091184;28;20293;-77
2024/01/21 09:06:14;;;;;;;38.13;17.53;;;;;;;;;;5091163;28;20620;-78
2024/01/21 09:08:41;;;;;;;36.63;17.67;;;;;;;;;;5091758;28;20570;-78
2024/01/21 09:11:09;;;;;;;34.87;17.40;;;;;;;;;;5110250;28;20305;-78
2024/01/21 09:13:37;;;;;;;42.60;18.30;;;;;;;;;;5111363;28;20327;-77
2024/01/21 09:16:04;;;;;;;37.63;16.70;;;;;;;;;;5111525;28;20277;-76
2024/01/21 09:18:33;;;;;;;42.13;17.93;;;;;;;;;;5111465;28;20741;-77
2024/01/21 09:21:00;;;;;;;46.03;17.40;;;;;;;;;;5114308;28;20197;-77
2024/01/21 09:23:27;;;;;;;39.40;18.27;;;;;;;;;;5115371;27;20285;-77
2024/01/21 09:25:54;;;;;;;40.87;17.33;;;;;;;;;;5115629;28;20198;-77
2024/01/21 09:28:23;;;;;;;36.37;16.67;;;;;;;;;;5115839;28;20282;-77
2024/01/21 09:30:51;;;;;;;39.73;16.80;;;;;;;;;;5115513;28;20270;-77
2024/01/21 09:33:19;;;;;;;37.17;17.30;;;;;;;;;;5115508;28;20229;-77
2024/01/21 09:35:49;;;;;;;46.60;17.33;;;;;;;;;;5115884;28;20255;-77
2024/01/21 09:38:18;;;;;;;36.00;16.77;;;;;;;;;;5112070;28;20195;-77
2024/01/21 09:40:47;;;;;;;40.20;17.30;;;;;;;;;;5114954;28;20538;-78
2024/01/21 09:43:15;;;;;;;32.33;16.20;;;;;;;;;;5110643;28;20197;-78
2024/01/21 09:45:44;;;;;;;36.60;15.50;;;;;;;;;;5115094;28;20194;-78
2024/01/21 09:48:12;;;;;;;32.17;16.57;;;;;;;;;;5110969;28;20312;-77
2024/01/21 09:50:39;;;;;;;34.27;15.97;;;;;;;;;;5103166;28;20191;-77
2024/01/21 09:53:11;;;;;;;38.60;16.37;;;;;;;;;;5098262;28;20232;-78
2024/01/21 09:55:38;;;;;;;37.27;17.37;;;;;;;;;;5108802;28;20224;-78
2024/01/21 09:58:08;;;;;;;33.10;16.40;;;;;;;;;;5112824;28;20217;-79
2024/01/21 10:00:36;;;;;;;32.97;17.10;;;;;;;;;;5115088;28;20200;-78
2024/01/21 10:03:04;;;;;;;36.17;17.13;;;;;;;;;;5115039;28;20270;-78
2024/01/21 10:05:31;;;;;;;34.43;15.47;;;;;;;;;;5114289;28;20736;-78
2024/01/21 10:07:58;;;;;;;34.53;15.53;;;;;;;;;;5105253;28;20255;-78
2024/01/21 10:10:27;;;;;;;35.90;14.53;;;;;;;;;;5117597;27;20205;-79
2024/01/21 10:12:55;;;;;;;35.43;14.90;;;;;;;;;;5118522;27;20780;-79
2024/01/21 10:15:22;;;;;;;35.57;15.30;;;;;;;;;;5113362;28;20649;-79
2024/01/21 10:17:49;;;;;;;36.47;15.70;;;;;;;;;;5111152;28;20198;-78
2024/01/21 10:20:17;;;;;;;41.73;15.43;;;;;;;;;;5120530;28;20193;-80
2024/01/21 10:22:44;;;;;;;30.63;14.87;;;;;;;;;;5118333;28;20225;-79
2024/01/21 10:25:14;;;;;;;45.83;15.60;;;;;;;;;;5118258;28;20279;-78
2024/01/21 10:27:46;;;;;;;41.53;15.97;;;;;;;;;;5123006;28;20193;-79
2024/01/21 10:30:14;;;;;;;42.47;16.37;;;;;;;;;;5120948;28;20197;-80
2024/01/21 10:32:41;;;;;;;40.33;16.03;;;;;;;;;;5123523;28;20213;-79
2024/01/21 10:35:08;;;;;;;40.80;15.13;;;;;;;;;;5121877;28;20205;-79
2024/01/21 10:37:39;;;;;;;35.57;15.80;;;;;;;;;;5124617;27;20193;-78
2024/01/21 10:40:07;;;;;;;34.90;15.10;;;;;;;;;;5122674;28;20208;-78
2024/01/21 10:42:35;;;;;;;39.63;15.80;;;;;;;;;;5109347;28;20741;-78
2024/01/21 10:45:05;;;;;;;38.87;15.80;;;;;;;;;;5112421;28;20288;-79
2024/01/21 10:47:33;;;;;;;34.57;15.97;;;;;;;;;;5099353;28;20285;-76
2024/01/21 10:50:01;;;;;;;36.93;15.47;;;;;;;;;;5095249;28;20201;-77
2024/01/21 10:52:28;;;;;;;40.47;15.17;;;;;;;;;;5110446;28;20198;-78
2024/01/21 10:54:56;;;;;;;48.03;16.80;;;;;;;;;;5111716;28;20285;-79
2024/01/21 10:57:23;;;;;;;31.87;14.70;;;;;;;;;;5112487;28;20297;-77
2024/01/21 10:59:50;;;;;;;32.63;14.93;;;;;;;;;;5112465;28;20565;-78
2024/01/21 11:02:20;;;;;;;39.13;15.23;;;;;;;;;;5111657;28;20280;-80
2024/01/21 11:04:47;;;;;;;35.60;16.10;;;;;;;;;;5110982;28;20216;-79
2024/01/21 11:07:15;;;;;;;39.10;16.73;;;;;;;;;;5111252;28;20204;-84
2024/01/21 11:09:42;;;;;;;38.87;16.43;;;;;;;;;;5128163;28;20250;-78
2024/01/21 11:12:10;;;;;;;40.70;16.53;;;;;;;;;;5084558;28;1140192;-76
2024/01/21 11:14:40;;;;;;;37.47;15.23;;;;;;;;;;5111513;28;20253;-76
2024/01/21 11:17:10;;;;;;;37.60;15.70;;;;;;;;;;5109281;27;20233;-75
2024/01/21 11:19:44;;;;;;;30.33;15.10;;;;;;;;;;5112986;27;20201;-77
2024/01/21 11:22:12;;;;;;;33.93;15.63;;;;;;;;;;5112958;28;20658;-79
2024/01/21 11:24:40;;;;;;;38.63;15.53;;;;;;;;;;5112876;27;20319;-79
2024/01/21 11:27:15;;;;;;;40.20;17.90;;;;;;;;;;5113275;28;20194;-75
2024/01/21 11:29:43;;;;;;;43.73;17.30;;;;;;;;;;5112608;28;20722;-77
2024/01/21 11:32:10;;;;;;;34.33;15.73;;;;;;;;;;5112365;28;20669;-74
2024/01/21 11:34:38;;;;;;;40.80;17.43;;;;;;;;;;5112915;28;20316;-76
2024/01/21 11:37:07;;;;;;;36.27;16.43;;;;;;;;;;5117853;27;20193;-76
2024/01/21 11:39:35;;;;;;;34.37;15.37;;;;;;;;;;5113228;28;20194;-76
2024/01/21 11:42:03;;;;;;;37.20;15.67;;;;;;;;;;5110615;28;20687;-76
2024/01/21 11:44:30;;;;;;;33.50;17.07;;;;;;;;;;5111336;28;20194;-75
2024/01/21 11:46:59;;;;;;;35.50;17.43;;;;;;;;;;5111261;28;20324;-76
2024/01/21 11:49:27;;;;;;;38.33;16.50;;;;;;;;;;5112295;28;20224;-76
2024/01/21 11:51:54;;;;;;;34.93;14.57;;;;;;;;;;5112290;28;20288;-76
2024/01/21 11:54:23;;;;;;;35.13;15.33;;;;;;;;;;5100711;28;20229;-74
2024/01/21 11:56:52;;;;;;;32.57;14.87;;;;;;;;;;5111715;28;20296;-75
2024/01/21 11:59:20;;;;;;;30.87;14.27;;;;;;;;;;5111911;28;20251;-75
2024/01/21 12:01:47;;;;;;;35.67;15.30;;;;;;;;;;5111072;28;20202;-74
2024/01/21 12:04:14;;;;;;;35.23;15.23;;;;;;;;;;5112381;28;20283;-75
2024/01/21 12:06:42;;;;;;;33.70;14.80;;;;;;;;;;5102475;28;20496;-74
2024/01/21 12:09:10;;;;;;;32.73;14.97;;;;;;;;;;5092889;28;20222;-74
2024/01/21 12:11:38;;;;;;;34.83;14.13;;;;;;;;;;5108800;28;20641;-74
2024/01/21 12:14:06;;;;;;;44.17;15.43;;;;;;;;;;5112066;28;20324;-75
2024/01/21 12:16:33;;;;;;;30.90;14.73;;;;;;;;;;5110985;28;20217;-75
2024/01/21 12:19:01;;;;;;;36.17;15.43;;;;;;;;;;5100070;28;20761;-75
2024/01/21 12:21:28;;;;;;;42.83;14.53;;;;;;;;;;5107022;28;20288;-74
2024/01/21 12:23:55;;;;;;;33.23;14.37;;;;;;;;;;5091891;28;20285;-75
2024/01/21 12:26:24;;;;;;;36.60;14.20;;;;;;;;;;5107322;28;20288;-75
2024/01/21 12:28:56;;;;;;;29.10;13.77;;;;;;;;;;5092173;28;20198;-75
2024/01/21 12:31:27;;;;;;;37.37;14.67;;;;;;;;;;5098082;28;20225;-75
2024/01/21 12:33:54;;;;;;;35.43;13.70;;;;;;;;;;5110406;28;20236;-75
2024/01/21 12:36:22;;;;;;;33.87;13.43;;;;;;;;;;5110820;28;20214;-76
2024/01/21 12:38:49;;;;;;;39.73;14.10;;;;;;;;;;5110737;28;20225;-75
2024/01/21 12:41:16;;;;;;;32.80;13.23;;;;;;;;;;5110203;28;20567;-76
2024/01/21 12:43:43;;;;;;;33.63;13.00;;;;;;;;;;5099364;28;20591;-77
2024/01/21 12:46:12;;;;;;;39.53;13.67;;;;;;;;;;5099338;28;20232;-75
2024/01/21 12:48:39;;;;;;;40.33;14.40;;;;;;;;;;5110680;28;20621;-75
2024/01/21 12:51:06;;;;;;;28.17;12.27;;;;;;;;;;5111103;28;20293;-76
2024/01/21 12:53:34;;;;;;;36.07;13.13;;;;;;;;;;5113171;27;20225;-77
2024/01/21 12:56:01;;;;;;;33.87;13.73;;;;;;;;;;5083611;28;20209;-77
2024/01/21 12:58:28;;;;;;;41.23;13.60;;;;;;;;;;5103250;28;20244;-77
2024/01/21 13:00:56;;;;;;;33.40;14.17;;;;;;;;;;5105508;28;20198;-76
2024/01/21 13:03:26;;;;;;;36.03;14.10;;;;;;;;;;5105332;28;20206;-77
2024/01/21 13:05:53;;;;;;;37.37;13.67;;;;;;;;;;5104944;28;20198;-76
2024/01/21 13:08:21;;;;;;;34.70;13.53;;;;;;;;;;5105822;28;20296;-77
2024/01/21 13:10:48;;;;;;;35.50;11.63;;;;;;;;;;5105980;28;20208;-77
2024/01/21 13:13:15;;;;;;;27.87;11.17;;;;;;;;;;5105336;28;20222;-78
2024/01/21 13:15:42;;;;;;;36.47;11.97;;;;;;;;;;5105600;28;20223;-76
2024/01/21 13:18:09;;;;;;;31.43;11.07;;;;;;;;;;5104522;28;20567;-76
2024/01/21 13:20:38;;;;;;;30.47;10.87;;;;;;;;;;5104203;28;20292;-76
2024/01/21 13:23:05;;;;;;;28.87;9.53;;;;;;;;;;5103330;28;20314;-76
2024/01/21 13:25:35;;;;;;;30.80;10.17;;;;;;;;;;5106327;28;20453;-77
2024/01/21 13:28:14;;;;;;;32.20;10.50;;;;;;;;;;5105691;28;20805;-77
2024/01/21 13:30:43;;;;;;;27.93;8.60;;;;;;;;;;5102890;28;20201;-76
2024/01/21 13:33:11;;;;;;;31.50;8.93;;;;;;;;;;5104959;28;20246;-77
2024/01/21 13:35:40;;;;;;;20.80;8.20;;;;;;;;;;5106234;28;20293;-77
2024/01/21 13:38:08;;;;;;;24.30;7.67;;;;;;;;;;5105642;28;20229;-78
2024/01/21 13:40:35;;;;;;;25.40;7.07;;;;;;;;;;5106084;28;20276;-77
2024/01/21 13:43:03;;;;;;;27.53;7.80;;;;;;;;;;5105729;28;20197;-77
2024/01/21 13:45:30;;;;;;;29.10;7.10;;;;;;;;;;5106208;28;20259;-78
2024/01/21 13:47:58;;;;;;;27.43;7.67;;;;;;;;;;5106623;28;20633;-77
2024/01/21 13:50:25;;;;;;;30.67;8.33;;;;;;;;;;5103872;28;20694;-77
2024/01/21 13:52:55;;;;;;;25.57;7.73;;;;;;;;;;5104813;28;20695;-77
2024/01/21 13:55:23;;;;;;;27.73;7.50;;;;;;;;;;5101776;28;20317;-81
2024/01/21 13:57:50;;;;;;;22.93;7.60;;;;;;;;;;5105020;28;20283;-83
2024/01/21 14:00:18;;;;;;;30.47;7.97;;;;;;;;;;5105423;28;20232;-82
2024/01/21 14:02:46;;;;;;;26.63;8.13;;;;;;;;;;5106145;28;20193;-82
2024/01/21 14:05:13;;;;;;;25.93;7.50;;;;;;;;;;5106066;28;20247;-82
2024/01/21 14:07:41;;;;;;;23.37;7.40;;;;;;;;;;5109706;28;20724;-82
2024/01/21 14:10:10;;;;;;;24.17;7.13;;;;;;;;;;5109402;28;20194;-82
2024/01/21 14:12:38;;;;;;;31.50;6.97;;;;;;;;;;5109325;28;20296;-83
2024/01/21 14:15:05;;;;;;;26.30;7.30;;;;;;;;;;5113063;28;20225;-82
2024/01/21 14:17:33;;;;;;;18.00;6.30;;;;;;;;;;5114623;28;20658;-82
2024/01/21 14:20:00;;;;;;;32.27;7.33;;;;;;;;;;5114583;28;20194;-81